createdAt,value
2018-06-05T00:00:17.836Z,13.60
2018-06-05T00:01:18.113Z,14.30
2018-06-05T00:02:18.310Z,13.90
2018-06-05T00:03:18.439Z,13.90
2018-06-05T00:04:18.473Z,13.70
2018-06-05T00:05:18.683Z,14.10
2018-06-05T00:06:18.929Z,14.10
2018-06-05T00:07:19.128Z,14.30
2018-06-05T00:08:19.317Z,14.30
2018-06-05T00:09:19.524Z,14.40
2018-06-05T00:10:19.591Z,13.40
2018-06-05T00:11:19.863Z,13.50
2018-06-05T00:12:23.888Z,14.00
2018-06-05T00:13:20.136Z,14.70
2018-06-05T00:14:20.452Z,14.20
2018-06-05T00:15:20.393Z,14.20
2018-06-05T00:16:20.619Z,13.50
2018-06-05T00:17:20.915Z,14.70
2018-06-05T00:18:20.950Z,14.70
2018-06-05T00:19:21.231Z,14.20
2018-06-05T00:20:21.376Z,14.50
2018-06-05T00:21:21.395Z,14.00
2018-06-05T00:22:21.607Z,15.30
2018-06-05T00:23:21.877Z,14.70
2018-06-05T00:24:22.057Z,15.40
2018-06-05T00:25:22.141Z,14.70
2018-06-05T00:26:22.201Z,15.00
2018-06-05T00:27:22.164Z,14.60
2018-06-05T00:28:26.547Z,15.20
2018-06-05T00:29:25.349Z,14.70
2018-06-05T00:30:25.719Z,14.70
2018-06-05T00:31:23.055Z,14.60
2018-06-05T00:32:23.293Z,15.20
2018-06-05T00:33:23.576Z,15.30
2018-06-05T00:34:23.648Z,15.80
2018-06-05T00:35:23.887Z,15.80
2018-06-05T00:36:23.988Z,15.60
2018-06-05T00:37:24.158Z,15.60
2018-06-05T00:38:24.320Z,15.90
2018-06-05T00:39:24.645Z,15.00
2018-06-05T00:40:27.372Z,15.50
2018-06-05T00:41:28.856Z,15.90
2018-06-05T00:42:26.095Z,16.70
2018-06-05T00:43:25.106Z,16.10
2018-06-05T00:44:25.296Z,15.70
2018-06-05T00:45:25.494Z,15.70
2018-06-05T00:46:25.755Z,16.20
2018-06-05T00:47:25.896Z,16.00
2018-06-05T00:48:25.811Z,16.00
2018-06-05T00:49:26.161Z,15.80
2018-06-05T00:50:26.405Z,16.30
2018-06-05T00:51:26.575Z,16.10
2018-06-05T00:52:26.732Z,15.80
2018-06-05T00:53:26.987Z,17.20
2018-06-05T00:54:27.148Z,16.10
2018-06-05T00:55:27.217Z,16.10
2018-06-05T00:56:28.522Z,16.40
2018-06-05T00:57:27.563Z,16.40
2018-06-05T00:58:34.088Z,15.90
2018-06-05T00:59:27.876Z,16.60
2018-06-05T01:00:28.063Z,16.90
2018-06-05T01:01:28.276Z,16.50
2018-06-05T01:02:28.486Z,16.30
2018-06-05T01:03:31.352Z,16.50
2018-06-05T01:04:28.759Z,16.30
2018-06-05T01:05:28.986Z,16.90
2018-06-05T01:06:29.031Z,17.10
2018-06-05T01:07:30.054Z,17.00
2018-06-05T01:08:29.414Z,16.60
2018-06-05T01:09:29.572Z,16.50
2018-06-05T01:10:29.821Z,17.10
2018-06-05T01:11:30.021Z,16.20
2018-06-05T01:12:30.294Z,16.00
2018-06-05T01:13:30.346Z,16.80
2018-06-05T01:14:30.621Z,16.00
2018-06-05T01:15:33.565Z,16.30
2018-06-05T01:16:30.874Z,16.60
2018-06-05T01:17:30.974Z,16.20
2018-06-05T01:18:35.805Z,16.70
2018-06-05T01:19:31.342Z,16.10
2018-06-05T01:20:31.543Z,16.80
2018-06-05T01:21:31.769Z,15.90
2018-06-05T01:22:31.905Z,16.10
2018-06-05T01:23:32.062Z,16.20
2018-06-05T01:24:32.180Z,16.80
2018-06-05T01:25:32.392Z,16.20
2018-06-05T01:26:32.585Z,16.20
2018-06-05T01:27:32.840Z,16.60
2018-06-05T01:28:32.952Z,16.20
2018-06-05T01:29:33.087Z,16.70
2018-06-05T01:30:36.624Z,16.10
2018-06-05T01:31:37.999Z,15.90
2018-06-05T01:32:33.436Z,17.40
2018-06-05T01:33:33.712Z,15.70
2018-06-05T01:34:38.422Z,17.40
2018-06-05T01:35:36.953Z,16.40
2018-06-05T01:36:34.322Z,16.90
2018-06-05T01:37:38.533Z,16.80
2018-06-05T01:38:38.002Z,16.20
2018-06-05T01:39:34.752Z,16.60
2018-06-05T01:40:34.897Z,16.10
2018-06-05T01:41:35.152Z,16.70
2018-06-05T01:42:35.371Z,16.10
2018-06-05T01:43:35.471Z,16.50
2018-06-05T01:44:39.106Z,16.00
2018-06-05T01:45:35.797Z,16.30
2018-06-05T01:46:35.981Z,16.20
2018-06-05T01:47:36.130Z,16.50
2018-06-05T01:48:36.386Z,16.80
2018-06-05T01:49:36.607Z,16.50
2018-06-05T01:50:36.657Z,16.60
2018-06-05T01:51:37.258Z,16.40
2018-06-05T01:52:37.019Z,16.80
2018-06-05T01:53:37.218Z,17.10
2018-06-05T01:54:37.403Z,17.30
2018-06-05T01:55:37.433Z,17.30
2018-06-05T01:56:37.626Z,17.00
2018-06-05T01:57:41.959Z,17.70
2018-06-05T01:58:37.933Z,17.60
2018-06-05T01:59:38.162Z,16.80
2018-06-05T02:00:38.278Z,17.40
2018-06-05T02:01:38.518Z,16.70
2018-06-05T02:02:38.757Z,18.20
2018-06-05T02:03:38.871Z,17.40
2018-06-05T02:04:39.090Z,17.80
2018-06-05T02:05:39.064Z,17.80
2018-06-05T02:06:39.340Z,18.20
2018-06-05T02:07:39.544Z,17.50
2018-06-05T02:08:39.787Z,16.50
2018-06-05T02:09:39.858Z,17.70
2018-06-05T02:10:42.730Z,17.30
2018-06-05T02:11:40.127Z,18.10
2018-06-05T02:12:40.364Z,17.80
2018-06-05T02:13:40.507Z,18.40
2018-06-05T02:14:40.780Z,16.90
2018-06-05T02:15:40.895Z,17.00
2018-06-05T02:16:41.026Z,17.10
2018-06-05T02:17:41.060Z,17.50
2018-06-05T02:18:45.029Z,18.20
2018-06-05T02:19:41.548Z,18.00
2018-06-05T02:20:41.602Z,17.70
2018-06-05T02:21:41.799Z,17.30
2018-06-05T02:22:45.959Z,17.20
2018-06-05T02:23:42.238Z,17.40
2018-06-05T02:24:42.278Z,17.40
2018-06-05T02:25:42.482Z,17.70
2018-06-05T02:26:44.214Z,17.60
2018-06-05T02:27:46.348Z,17.00
2018-06-05T02:28:46.894Z,17.30
2018-06-05T02:29:43.076Z,17.50
2018-06-05T02:30:43.124Z,17.10
2018-06-05T02:31:43.291Z,17.70
2018-06-05T02:32:43.524Z,18.80
2018-06-05T02:33:43.705Z,18.00
2018-06-05T02:34:43.884Z,18.30
2018-06-05T02:35:47.720Z,18.90
2018-06-05T02:36:45.087Z,18.60
2018-06-05T02:37:44.309Z,19.20
2018-06-05T02:38:44.501Z,18.60
2018-06-05T02:39:45.534Z,19.50
2018-06-05T02:40:44.974Z,19.60
2018-06-05T02:41:45.115Z,19.30
2018-06-05T02:42:45.322Z,18.70
2018-06-05T02:43:45.584Z,18.80
2018-06-05T02:44:45.662Z,19.10
2018-06-05T02:45:45.957Z,18.70
2018-06-05T02:46:46.191Z,19.20
2018-06-05T02:47:46.205Z,20.20
2018-06-05T02:48:46.166Z,20.40
2018-06-05T02:49:46.506Z,19.50
2018-06-05T02:50:46.700Z,19.70
2018-06-05T02:51:49.997Z,19.60
2018-06-05T02:52:48.236Z,20.20
2018-06-05T02:53:47.352Z,19.30
2018-06-05T02:54:47.447Z,19.80
2018-06-05T02:55:47.573Z,19.20
2018-06-05T02:56:47.778Z,19.50
2018-06-05T02:57:49.947Z,19.70
2018-06-05T02:58:50.172Z,19.90
2018-06-05T02:59:48.246Z,20.20
2018-06-05T03:00:48.505Z,20.10
2018-06-05T03:01:51.273Z,21.00
2018-06-05T03:02:48.770Z,20.20
2018-06-05T03:03:48.995Z,21.70
2018-06-05T03:04:49.188Z,20.90
2018-06-05T03:05:49.393Z,20.30
2018-06-05T03:06:49.560Z,21.40
2018-06-05T03:07:49.866Z,21.90
2018-06-05T03:08:49.950Z,22.30
2018-06-05T03:09:50.045Z,22.30
2018-06-05T03:10:50.152Z,20.70
2018-06-05T03:11:50.365Z,21.70
2018-06-05T03:12:50.597Z,22.10
2018-06-05T03:13:54.742Z,22.30
2018-06-05T03:14:50.855Z,22.70
2018-06-05T03:15:51.051Z,23.00
2018-06-05T03:16:51.290Z,22.60
2018-06-05T03:17:51.436Z,22.10
2018-06-05T03:18:51.654Z,23.40
2018-06-05T03:19:51.928Z,22.80
2018-06-05T03:20:52.048Z,22.90
2018-06-05T03:21:52.511Z,22.60
2018-06-05T03:22:52.272Z,22.00
2018-06-05T03:23:52.525Z,22.70
2018-06-05T03:24:53.315Z,21.50
2018-06-05T03:25:52.673Z,21.90
2018-06-05T03:26:52.641Z,21.40
2018-06-05T03:27:52.815Z,21.80
2018-06-05T03:28:52.996Z,21.20
2018-06-05T03:29:53.173Z,22.30
2018-06-05T03:30:53.357Z,21.60
2018-06-05T03:31:53.536Z,22.20
2018-06-05T03:32:53.711Z,22.00
2018-06-05T03:33:57.579Z,22.40
2018-06-05T03:34:54.401Z,20.80
2018-06-05T03:35:54.486Z,20.90
2018-06-05T03:36:54.717Z,21.70
2018-06-05T03:37:57.593Z,22.10
2018-06-05T03:38:55.011Z,22.70
2018-06-05T03:39:55.205Z,22.20
2018-06-05T03:40:55.474Z,22.40
2018-06-05T03:41:55.494Z,22.80
2018-06-05T03:42:56.057Z,22.10
2018-06-05T03:43:55.891Z,21.50
2018-06-05T03:44:56.065Z,22.60
2018-06-05T03:45:56.140Z,21.40
2018-06-05T03:46:56.360Z,22.20
2018-06-05T03:47:56.595Z,21.50
2018-06-05T03:48:56.663Z,21.90
2018-06-05T03:49:56.937Z,21.20
2018-06-05T03:50:57.178Z,21.50
2018-06-05T03:51:57.752Z,21.80
2018-06-05T03:52:57.343Z,21.10
2018-06-05T03:54:00.112Z,22.60
2018-06-05T03:54:57.472Z,22.50
2018-06-05T03:55:59.046Z,22.20
2018-06-05T03:56:58.448Z,23.60
2018-06-05T03:57:57.966Z,24.00
2018-06-05T03:58:58.203Z,23.90
2018-06-05T03:59:58.165Z,22.70
2018-06-05T04:00:58.351Z,22.70
2018-06-05T04:01:58.524Z,23.00
2018-06-05T04:02:58.714Z,23.20
2018-06-05T04:03:58.890Z,23.10
2018-06-05T04:04:59.067Z,25.00
2018-06-05T04:05:59.257Z,21.60
2018-06-05T04:06:59.432Z,23.00
2018-06-05T04:07:59.620Z,24.10
2018-06-05T04:08:59.796Z,24.00
2018-06-05T04:09:59.971Z,23.20
2018-06-05T04:11:00.231Z,23.20
2018-06-05T04:12:00.327Z,24.80
2018-06-05T04:13:00.507Z,25.20
2018-06-05T04:14:00.684Z,27.80
2018-06-05T04:15:00.874Z,30.20
2018-06-05T04:16:01.072Z,30.30
2018-06-05T04:17:01.246Z,31.40
2018-06-05T04:18:01.427Z,31.20
2018-06-05T04:19:01.622Z,32.80
2018-06-05T04:20:01.776Z,32.90
2018-06-05T04:21:01.955Z,33.00
2018-06-05T04:22:02.131Z,33.90
2018-06-05T04:23:02.318Z,33.90
2018-06-05T04:24:02.479Z,33.40
2018-06-05T04:25:02.662Z,36.20
2018-06-05T04:26:02.840Z,34.30
2018-06-05T04:27:03.046Z,35.50
2018-06-05T04:28:03.201Z,37.60
2018-06-05T04:29:03.372Z,37.40
2018-06-05T04:30:03.559Z,37.90
2018-06-05T04:31:03.738Z,36.90
2018-06-05T04:32:03.916Z,35.10
2018-06-05T04:33:04.088Z,39.00
2018-06-05T04:34:04.264Z,38.20
2018-06-05T04:35:04.474Z,38.90
2018-06-05T04:36:04.664Z,35.50
2018-06-05T04:37:04.821Z,36.40
2018-06-05T04:38:04.994Z,35.20
2018-06-05T04:39:05.172Z,36.10
2018-06-05T04:40:05.351Z,35.20
2018-06-05T04:41:05.526Z,38.00
2018-06-05T04:42:05.709Z,37.50
2018-06-05T04:43:05.883Z,36.50
2018-06-05T04:44:06.064Z,36.20
2018-06-05T04:45:06.241Z,36.20
2018-06-05T04:46:06.422Z,34.50
2018-06-05T04:47:06.595Z,37.10
2018-06-05T04:48:06.775Z,36.30
2018-06-05T04:49:06.954Z,35.70
2018-06-05T04:50:07.139Z,35.80
2018-06-05T04:51:07.335Z,35.60
2018-06-05T04:52:07.496Z,37.10
2018-06-05T04:53:07.671Z,32.50
2018-06-05T04:54:07.855Z,37.20
2018-06-05T04:55:08.102Z,37.30
2018-06-05T04:56:08.251Z,37.30
2018-06-05T04:57:08.439Z,34.80
2018-06-05T04:58:08.643Z,36.60
2018-06-05T04:59:08.825Z,34.90
2018-06-05T05:00:09.000Z,34.20
2018-06-05T05:01:09.187Z,34.00
2018-06-05T05:02:09.376Z,35.40
2018-06-05T05:03:09.555Z,38.00
2018-06-05T05:04:09.747Z,37.30
2018-06-05T05:05:09.979Z,39.70
2018-06-05T05:06:10.184Z,35.30
2018-06-05T05:07:10.352Z,37.90
2018-06-05T05:08:10.593Z,37.60
2018-06-05T05:09:10.722Z,38.20
2018-06-05T05:10:10.904Z,37.10
2018-06-05T05:11:11.083Z,37.60
2018-06-05T05:12:11.272Z,36.10
2018-06-05T05:13:11.485Z,35.30
2018-06-05T05:14:11.690Z,35.50
2018-06-05T05:15:11.908Z,34.80
2018-06-05T05:16:13.227Z,34.00
2018-06-05T05:17:12.257Z,34.00
2018-06-05T05:18:12.441Z,36.90
2018-06-05T05:19:12.619Z,34.30
2018-06-05T05:20:13.614Z,35.10
2018-06-05T05:21:12.995Z,36.00
2018-06-05T05:22:13.177Z,34.90
2018-06-05T05:23:13.380Z,37.50
2018-06-05T05:24:13.530Z,34.80
2018-06-05T05:25:13.702Z,33.50
2018-06-05T05:26:13.898Z,33.20
2018-06-05T05:27:14.071Z,34.60
2018-06-05T05:28:14.262Z,32.30
2018-06-05T05:29:14.449Z,34.70
2018-06-05T05:30:14.630Z,34.90
2018-06-05T05:31:14.881Z,34.90
2018-06-05T05:32:15.001Z,33.60
2018-06-05T05:33:15.183Z,36.70
2018-06-05T05:34:15.361Z,34.40
2018-06-05T05:35:15.542Z,35.00
2018-06-05T05:36:15.718Z,35.20
2018-06-05T05:37:15.895Z,34.40
2018-06-05T05:38:16.078Z,33.10
2018-06-05T05:39:16.371Z,35.10
2018-06-05T05:40:16.434Z,35.00
2018-06-05T05:41:16.610Z,31.80
2018-06-05T05:42:16.794Z,32.90
2018-06-05T05:43:16.977Z,31.80
2018-06-05T05:44:17.166Z,34.00
2018-06-05T05:45:17.323Z,36.20
2018-06-05T05:46:17.503Z,34.60
2018-06-05T05:47:17.676Z,33.30
2018-06-05T05:48:17.857Z,30.60
2018-06-05T05:49:18.038Z,33.70
2018-06-05T05:50:18.220Z,33.60
2018-06-05T05:51:18.398Z,33.00
2018-06-05T05:52:18.575Z,33.30
2018-06-05T05:53:18.759Z,33.60
2018-06-05T05:54:18.934Z,32.60
2018-06-05T05:55:19.110Z,32.60
2018-06-05T05:56:19.499Z,31.30
2018-06-05T05:57:19.515Z,32.90
2018-06-05T05:58:19.709Z,32.70
2018-06-05T05:59:19.889Z,30.60
2018-06-05T06:00:20.067Z,32.20
2018-06-05T06:01:20.250Z,32.20
2018-06-05T06:02:20.423Z,30.80
2018-06-05T06:03:20.642Z,31.50
2018-06-05T06:04:20.706Z,29.80
2018-06-05T06:05:20.884Z,31.20
2018-06-05T06:06:21.072Z,32.30
2018-06-05T06:07:21.246Z,31.60
2018-06-05T06:08:21.419Z,32.50
2018-06-05T06:09:21.640Z,32.30
2018-06-05T06:10:21.825Z,30.50
2018-06-05T06:11:22.000Z,31.50
2018-06-05T06:12:22.176Z,32.20
2018-06-05T06:13:22.351Z,30.30
2018-06-05T06:14:22.530Z,32.60
2018-06-05T06:15:22.707Z,29.70
2018-06-05T06:16:22.906Z,32.50
2018-06-05T06:17:23.087Z,29.70
2018-06-05T06:18:23.267Z,30.40
2018-06-05T06:19:23.499Z,30.20
2018-06-05T06:20:23.655Z,31.20
2018-06-05T06:21:23.830Z,28.00
2018-06-05T06:22:24.005Z,28.30
2018-06-05T06:23:24.190Z,29.60
2018-06-05T06:24:24.359Z,27.90
2018-06-05T06:25:24.540Z,29.00
2018-06-05T06:26:24.723Z,30.30
2018-06-05T06:27:24.903Z,26.20
2018-06-05T06:28:25.082Z,28.60
2018-06-05T06:29:25.257Z,28.70
2018-06-05T06:30:25.439Z,27.70
2018-06-05T06:31:25.611Z,28.00
2018-06-05T06:32:25.795Z,29.40
2018-06-05T06:33:25.966Z,29.50
2018-06-05T06:34:30.512Z,28.60
2018-06-05T06:35:26.299Z,29.90
2018-06-05T06:36:28.127Z,29.50
2018-06-05T06:37:26.667Z,26.50
2018-06-05T06:38:26.847Z,26.30
2018-06-05T06:39:27.019Z,27.80
2018-06-05T06:40:27.201Z,26.90
2018-06-05T06:41:27.373Z,28.20
2018-06-05T06:42:27.551Z,27.90
2018-06-05T06:43:27.733Z,26.70
2018-06-05T06:44:27.913Z,29.70
2018-06-05T06:45:28.122Z,29.40
2018-06-05T06:46:28.335Z,27.60
2018-06-05T06:47:28.513Z,28.50
2018-06-05T06:48:28.721Z,27.00
2018-06-05T06:49:28.878Z,28.40
2018-06-05T06:50:29.089Z,27.60
2018-06-05T06:51:29.240Z,26.00
2018-06-05T06:52:29.420Z,29.30
2018-06-05T06:53:29.605Z,28.10
2018-06-05T06:54:29.845Z,29.00
2018-06-05T06:55:30.005Z,28.60
2018-06-05T06:56:30.176Z,27.00
2018-06-05T06:57:30.361Z,28.00
2018-06-05T06:58:30.534Z,26.70
2018-06-05T06:59:30.715Z,25.80
2018-06-05T07:00:30.907Z,27.60
2018-06-05T07:01:31.546Z,27.60
2018-06-05T07:02:35.491Z,27.00
2018-06-05T07:03:35.592Z,27.40
2018-06-05T07:04:35.135Z,27.10
2018-06-05T07:05:33.311Z,28.60
2018-06-05T07:06:33.682Z,28.30
2018-06-05T07:07:34.413Z,29.60
2018-06-05T07:08:34.711Z,29.00
2018-06-05T07:09:33.174Z,27.00
2018-06-05T07:10:35.669Z,26.70
2018-06-05T07:11:34.296Z,26.50
2018-06-05T07:12:34.101Z,28.80
2018-06-05T07:13:32.925Z,26.70
2018-06-05T07:14:34.421Z,27.80
2018-06-05T07:15:36.244Z,26.60
2018-06-05T07:16:33.240Z,28.30
2018-06-05T07:17:33.715Z,28.60
2018-06-05T07:18:33.658Z,28.30
2018-06-05T07:19:35.553Z,29.00
2018-06-05T07:20:36.005Z,30.10
2018-06-05T07:21:37.885Z,27.70
2018-06-05T07:22:36.489Z,28.90
2018-06-05T07:23:34.411Z,29.60
2018-06-05T07:24:34.592Z,26.50
2018-06-05T07:25:34.837Z,26.10
2018-06-05T07:26:34.887Z,26.90
2018-06-05T07:27:35.062Z,28.00
2018-06-05T07:28:35.235Z,24.80
2018-06-05T07:29:35.420Z,26.20
2018-06-05T07:30:35.605Z,25.40
2018-06-05T07:31:35.800Z,25.10
2018-06-05T07:32:35.978Z,25.70
2018-06-05T07:33:36.160Z,25.50
2018-06-05T07:34:36.344Z,26.80
2018-06-05T07:35:36.517Z,26.60
2018-06-05T07:36:36.728Z,27.10
2018-06-05T07:37:36.897Z,25.10
2018-06-05T07:38:37.090Z,24.80
2018-06-05T07:39:37.841Z,23.90
2018-06-05T07:40:37.465Z,25.20
2018-06-05T07:41:37.654Z,27.60
2018-06-05T07:42:37.831Z,26.40
2018-06-05T07:43:38.008Z,26.50
2018-06-05T07:44:38.197Z,25.50
2018-06-05T07:45:39.136Z,26.30
2018-06-05T07:46:38.572Z,26.70
2018-06-05T07:47:38.743Z,26.40
2018-06-05T07:48:38.922Z,26.70
2018-06-05T07:49:39.107Z,27.10
2018-06-05T07:50:39.285Z,28.20
2018-06-05T07:51:39.496Z,27.60
2018-06-05T07:52:39.815Z,28.00
2018-06-05T07:53:39.831Z,29.30
2018-06-05T07:54:40.009Z,27.90
2018-06-05T07:55:40.256Z,25.70
2018-06-05T07:56:40.309Z,26.50
2018-06-05T07:57:40.492Z,27.20
2018-06-05T07:58:40.686Z,27.70
2018-06-05T07:59:40.875Z,26.50
2018-06-05T08:00:41.054Z,28.50
2018-06-05T08:01:41.260Z,29.70
2018-06-05T08:02:41.436Z,28.90
2018-06-05T08:03:41.624Z,26.80
2018-06-05T08:04:41.799Z,28.20
2018-06-05T08:05:46.988Z,27.00
2018-06-05T08:06:42.161Z,26.10
2018-06-05T08:07:42.529Z,25.70
2018-06-05T08:08:42.489Z,27.80
2018-06-05T08:09:42.669Z,27.30
2018-06-05T08:10:42.844Z,27.40
2018-06-05T08:11:43.034Z,27.00
2018-06-05T08:12:43.210Z,26.30
2018-06-05T08:13:43.387Z,26.30
2018-06-05T08:14:43.579Z,27.80
2018-06-05T08:15:43.758Z,25.90
2018-06-05T08:16:43.935Z,26.00
2018-06-05T08:17:44.414Z,24.40
2018-06-05T08:18:44.218Z,25.30
2018-06-05T08:19:44.399Z,24.60
2018-06-05T08:20:44.588Z,23.60
2018-06-05T08:21:44.764Z,25.50
2018-06-05T08:22:44.941Z,25.90
2018-06-05T08:23:45.719Z,25.60
2018-06-05T08:24:45.279Z,27.10
2018-06-05T08:25:45.456Z,27.30
2018-06-05T08:26:45.638Z,25.40
2018-06-05T08:27:45.815Z,22.40
2018-06-05T08:28:45.998Z,24.40
2018-06-05T08:29:46.203Z,24.30
2018-06-05T08:30:46.374Z,24.80
2018-06-05T08:31:46.591Z,24.30
2018-06-05T08:32:46.741Z,25.60
2018-06-05T08:33:46.912Z,25.70
2018-06-05T08:34:47.096Z,24.80
2018-06-05T08:35:47.305Z,23.40
2018-06-05T08:36:47.568Z,25.80
2018-06-05T08:37:47.666Z,25.20
2018-06-05T08:38:47.795Z,23.30
2018-06-05T08:39:47.976Z,23.40
2018-06-05T08:40:48.155Z,24.50
2018-06-05T08:41:48.337Z,24.00
2018-06-05T08:42:48.530Z,23.60
2018-06-05T08:43:48.703Z,24.80
2018-06-05T08:44:49.270Z,24.70
2018-06-05T08:45:49.024Z,26.60
2018-06-05T08:46:49.220Z,24.70
2018-06-05T08:47:49.412Z,26.20
2018-06-05T08:48:49.565Z,25.70
2018-06-05T08:49:49.759Z,22.60
2018-06-05T08:50:49.975Z,24.50
2018-06-05T08:51:50.136Z,24.20
2018-06-05T08:52:50.318Z,23.90
2018-06-05T08:53:50.495Z,24.40
2018-06-05T08:54:50.670Z,24.50
2018-06-05T08:55:50.864Z,24.70
2018-06-05T08:56:51.032Z,24.80
2018-06-05T08:57:51.210Z,25.60
2018-06-05T08:58:51.383Z,25.60
2018-06-05T08:59:51.611Z,26.20
2018-06-05T09:00:52.738Z,23.20
2018-06-05T09:01:51.911Z,23.50
2018-06-05T09:02:52.813Z,23.80
2018-06-05T09:03:53.995Z,22.80
2018-06-05T09:04:52.448Z,22.80
2018-06-05T09:05:52.647Z,22.30
2018-06-05T09:06:52.823Z,24.40
2018-06-05T09:07:53.010Z,24.50
2018-06-05T09:08:53.207Z,21.80
2018-06-05T09:09:53.372Z,23.10
2018-06-05T09:10:53.609Z,25.40
2018-06-05T09:11:53.736Z,22.30
2018-06-05T09:12:53.925Z,24.40
2018-06-05T09:13:54.101Z,26.10
2018-06-05T09:14:54.287Z,23.30
2018-06-05T09:15:54.471Z,24.30
2018-06-05T09:16:54.655Z,23.40
2018-06-05T09:17:54.839Z,23.00
2018-06-05T09:18:55.018Z,24.40
2018-06-05T09:19:55.199Z,23.30
2018-06-05T09:20:55.379Z,23.30
2018-06-05T09:21:55.562Z,22.20
2018-06-05T09:22:55.742Z,24.50
2018-06-05T09:23:55.916Z,22.20
2018-06-05T09:24:56.094Z,21.40
2018-06-05T09:25:56.270Z,21.30
2018-06-05T09:26:56.460Z,21.30
2018-06-05T09:27:56.637Z,20.50
2018-06-05T09:28:56.871Z,21.50
2018-06-05T09:29:57.021Z,22.10
2018-06-05T09:30:57.198Z,21.60
2018-06-05T09:31:57.542Z,21.10
2018-06-05T09:32:57.596Z,21.10
2018-06-05T09:33:57.785Z,21.60
2018-06-05T09:34:57.959Z,22.50
2018-06-05T09:35:58.155Z,21.80
2018-06-05T09:36:58.346Z,21.40
2018-06-05T09:37:58.531Z,22.10
2018-06-05T09:38:58.726Z,22.60
2018-06-05T09:39:58.905Z,22.70
2018-06-05T09:40:59.090Z,20.60
2018-06-05T09:41:59.274Z,20.40
2018-06-05T09:42:59.463Z,20.20
2018-06-05T09:43:59.692Z,19.90
2018-06-05T09:44:59.829Z,18.80
2018-06-05T09:46:00.029Z,19.10
2018-06-05T09:47:00.221Z,19.70
2018-06-05T09:48:00.405Z,19.90
2018-06-05T09:49:00.594Z,18.10
2018-06-05T09:50:00.784Z,18.50
2018-06-05T09:51:00.969Z,17.70
2018-06-05T09:52:01.199Z,17.80
2018-06-05T09:53:03.205Z,18.60
2018-06-05T09:54:01.538Z,19.20
2018-06-05T09:55:01.900Z,19.50
2018-06-05T09:56:01.842Z,18.30
2018-06-05T09:57:02.512Z,18.40
2018-06-05T09:58:04.245Z,17.20
2018-06-05T09:59:04.079Z,16.50
2018-06-05T10:00:04.392Z,14.80
2018-06-05T10:01:03.429Z,16.10
2018-06-05T10:02:04.862Z,14.60
2018-06-05T10:03:07.930Z,19.90
2018-06-05T10:04:05.728Z,17.70
2018-06-05T10:05:03.546Z,17.00
2018-06-05T10:06:03.728Z,18.00
2018-06-05T10:07:03.920Z,17.30
2018-06-05T10:08:06.504Z,16.80
2018-06-05T10:09:07.611Z,17.20
2018-06-05T10:10:05.815Z,14.70
2018-06-05T10:11:05.788Z,16.40
2018-06-05T10:12:05.818Z,15.70
2018-06-05T10:13:05.781Z,13.90
2018-06-05T10:14:07.735Z,14.60
2018-06-05T10:15:06.953Z,13.60
2018-06-05T10:16:08.997Z,13.30
2018-06-05T10:17:07.504Z,13.30
2018-06-05T10:18:07.357Z,13.70
2018-06-05T10:19:07.916Z,12.60
2018-06-05T10:20:05.963Z,11.80
2018-06-05T10:21:08.272Z,12.30
2018-06-05T10:22:06.364Z,11.60
2018-06-05T10:23:06.543Z,11.70
2018-06-05T10:24:06.750Z,12.90
2018-06-05T10:25:06.945Z,14.50
2018-06-05T10:26:07.135Z,13.80
2018-06-05T10:27:07.363Z,12.80
2018-06-05T10:28:07.662Z,12.70
2018-06-05T10:29:09.505Z,12.10
2018-06-05T10:30:07.855Z,10.90
2018-06-05T10:31:09.153Z,12.80
2018-06-05T10:32:08.201Z,12.10
2018-06-05T10:33:08.383Z,13.10
2018-06-05T10:34:08.566Z,13.40
2018-06-05T10:35:08.759Z,12.40
2018-06-05T10:36:08.936Z,13.60
2018-06-05T10:37:09.117Z,12.80
2018-06-05T10:38:09.365Z,12.90
2018-06-05T10:39:09.433Z,12.30
2018-06-05T10:40:09.628Z,11.70
2018-06-05T10:41:09.828Z,11.60
2018-06-05T10:42:10.005Z,11.90
2018-06-05T10:43:10.190Z,11.50
2018-06-05T10:44:10.376Z,11.90
2018-06-05T10:45:10.561Z,11.50
2018-06-05T10:46:10.795Z,11.00
2018-06-05T10:47:10.936Z,10.40
2018-06-05T10:48:11.120Z,10.10
2018-06-05T10:49:11.299Z,10.90
2018-06-05T10:50:11.548Z,10.50
2018-06-05T10:51:11.838Z,12.00
2018-06-05T10:52:11.874Z,11.80
2018-06-05T10:53:12.055Z,9.60
2018-06-05T10:54:12.270Z,12.30
2018-06-05T10:55:12.475Z,11.30
2018-06-05T10:56:12.660Z,11.30
2018-06-05T10:57:12.857Z,10.60
2018-06-05T10:58:13.125Z,10.00
2018-06-05T10:59:13.166Z,9.70
2018-06-05T11:00:13.355Z,12.40
2018-06-05T11:01:13.532Z,11.00
2018-06-05T11:02:13.724Z,10.00
2018-06-05T11:03:13.904Z,10.10
2018-06-05T11:04:14.088Z,10.40
2018-06-05T11:05:14.279Z,11.10
2018-06-05T11:06:14.461Z,10.70
2018-06-05T11:07:14.647Z,11.20
2018-06-05T11:08:14.832Z,9.80
2018-06-05T11:09:15.018Z,9.90
2018-06-05T11:10:15.208Z,10.10
2018-06-05T11:11:15.415Z,9.20
2018-06-05T11:12:16.856Z,10.80
2018-06-05T11:13:15.764Z,12.00
2018-06-05T11:14:15.942Z,11.00
2018-06-05T11:15:16.138Z,10.10
2018-06-05T11:16:16.301Z,9.60
2018-06-05T11:17:16.494Z,8.90
2018-06-05T11:18:16.687Z,8.70
2018-06-05T11:19:16.866Z,8.80
2018-06-05T11:20:17.058Z,9.00
2018-06-05T11:21:18.116Z,8.30
2018-06-05T11:22:17.459Z,9.50
2018-06-05T11:23:17.637Z,9.20
2018-06-05T11:24:17.814Z,9.20
2018-06-05T11:25:17.993Z,9.60
2018-06-05T11:26:18.325Z,9.80
2018-06-05T11:27:18.321Z,8.90
2018-06-05T11:28:18.542Z,9.80
2018-06-05T11:29:18.709Z,8.50
2018-06-05T11:30:18.901Z,9.90
2018-06-05T11:31:19.092Z,9.90
2018-06-05T11:32:19.275Z,8.90
2018-06-05T11:33:19.457Z,9.20
2018-06-05T11:34:19.663Z,10.00
2018-06-05T11:35:19.914Z,10.00
2018-06-05T11:36:20.066Z,9.70
2018-06-05T11:37:20.338Z,10.70
2018-06-05T11:38:20.358Z,10.00
2018-06-05T11:39:20.446Z,9.50
2018-06-05T11:40:20.796Z,9.00
2018-06-05T11:41:20.896Z,10.30
2018-06-05T11:42:21.069Z,9.00
2018-06-05T11:43:21.327Z,9.20
2018-06-05T11:44:21.489Z,9.40
2018-06-05T11:45:21.799Z,8.70
2018-06-05T11:46:22.093Z,9.00
2018-06-05T11:47:22.048Z,8.70
2018-06-05T11:48:22.720Z,8.90
2018-06-05T11:49:22.403Z,8.70
2018-06-05T11:50:23.240Z,9.40
2018-06-05T11:51:22.818Z,9.90
2018-06-05T11:52:23.022Z,8.70
2018-06-05T11:53:23.220Z,9.50
2018-06-05T11:54:23.421Z,8.80
2018-06-05T11:55:23.589Z,8.90
2018-06-05T11:56:24.097Z,8.10
2018-06-05T11:57:24.379Z,8.90
2018-06-05T11:58:24.179Z,9.30
2018-06-05T11:59:24.383Z,9.20
2018-06-05T12:00:24.568Z,9.80
2018-06-05T12:01:25.457Z,9.40
2018-06-05T12:02:26.966Z,8.80
2018-06-05T12:03:26.169Z,9.50
2018-06-05T12:04:28.854Z,9.00
2018-06-05T12:05:26.790Z,8.70
2018-06-05T12:06:27.892Z,9.60
2018-06-05T12:07:28.562Z,8.80
2018-06-05T12:08:29.907Z,8.80
2018-06-05T12:09:26.825Z,9.10
2018-06-05T12:10:27.732Z,9.10
2018-06-05T12:11:27.560Z,8.10
2018-06-05T12:12:28.825Z,8.80
2018-06-05T12:13:27.954Z,8.60
2018-06-05T12:14:29.914Z,8.00
2018-06-05T12:15:28.781Z,8.70
2018-06-05T12:16:29.079Z,9.20
2018-06-05T12:17:27.387Z,8.60
2018-06-05T12:18:33.298Z,9.50
2018-06-05T12:19:29.812Z,9.20
2018-06-05T12:20:30.476Z,8.80
2018-06-05T12:21:28.064Z,9.20
2018-06-05T12:22:28.227Z,9.30
2018-06-05T12:23:28.429Z,9.20
2018-06-05T12:24:28.623Z,8.50
2018-06-05T12:25:28.777Z,9.20
2018-06-05T12:26:28.982Z,8.20
2018-06-05T12:27:29.170Z,9.00
2018-06-05T12:28:29.346Z,9.90
2018-06-05T12:29:29.527Z,9.40
2018-06-05T12:30:29.726Z,8.90
2018-06-05T12:31:29.905Z,8.90
2018-06-05T12:32:30.093Z,9.50
2018-06-05T12:33:30.274Z,10.00
2018-06-05T12:34:30.449Z,9.20
2018-06-05T12:35:30.630Z,9.40
2018-06-05T12:36:30.811Z,9.20
2018-06-05T12:37:30.995Z,9.60
2018-06-05T12:38:31.184Z,9.80
2018-06-05T12:39:31.368Z,8.90
2018-06-05T12:40:31.654Z,9.90
2018-06-05T12:41:31.737Z,9.80
2018-06-05T12:42:31.920Z,10.30
2018-06-05T12:43:32.101Z,10.90
2018-06-05T12:44:32.296Z,10.00
2018-06-05T12:45:32.483Z,10.10
2018-06-05T12:46:32.665Z,9.90
2018-06-05T12:47:32.868Z,10.00
2018-06-05T12:48:33.067Z,11.10
2018-06-05T12:49:33.226Z,9.40
2018-06-05T12:50:33.408Z,11.00
2018-06-05T12:51:33.682Z,9.50
2018-06-05T12:52:33.771Z,9.70
2018-06-05T12:53:33.956Z,9.40
2018-06-05T12:54:34.145Z,10.40
2018-06-05T12:55:34.329Z,9.70
2018-06-05T12:56:34.512Z,9.60
2018-06-05T12:57:34.692Z,9.50